x

Cape Cleare - 17 Nm South Of Montague Is, Ak (46076) Wave Buoy

9:50am - Tue 23rd May 2017 All times are AKDT. -8 hours from GMT.

  • Sig Wave height 5.9ft
  • Swell Direction
  • Peak Period 10s
  • Average Period 6s
  • Wind
    20mph, 22mph gusts
  • Sea Temp 45°f
  • Air Temp 45°f
  • Sea Pressure 1016.3mb
  • Cape Cleare - 17 Nm South Of Montague Is,  Ak
  • Cape Cleare - 17 Nm South Of Montague Is,  Ak

More Historic Weather Station data

Upgrade to MSW Pro to gain access to the past 30 days of data for over 8000 Wavebouys and Weather Stations around the globe.

Join Pro

Comparision Forecast

View Surf forecast
   
Tue 05/23 9:50am 6ft 10s 6s 20 22 mph 1016.3mb 45f 45f
8:50am 6.5ft 10s 6s 18 22 mph 1016.4mb 45f 45f
7:50am 7ft 11s 7s 18 20 mph 1016.5mb 45f 44f
6:50am 7ft 11s 7s 16 18 mph 1016.7mb 45f 45f
5:50am 6.5ft 11s 7s 16 20 mph 1016.6mb 45f 44f
4:50am 6.5ft 8s 8s 13 16 mph 1016.5mb 45f 44f
3:50am 7ft 11s 8s 13 16 mph 1016.4mb 45f 45f
2:50am 7ft 11s 8s 9 11 mph 1016.4mb 45f 45f
1:50am 7ft 11s 8s 9 11 mph 1016.4mb 45f 45f
12:50am 6.5ft 11s 8s 7 7 mph 1016.2mb 45f 45f
Mon 05/22 11:50pm 7ft 11s 8s 4 4 mph 1015.9mb 45f 45f
10:50pm 7ft 11s 7s 2 4 mph 1015.6mb 45f 45f
9:50pm 7ft 10s 8s 4 4 mph 1015.2mb 45f 45f
8:50pm 8ft 10s 8s 7 7 mph 1015mb 46f 45f
7:50pm 8.5ft 11s 8s 4 7 mph 1014.9mb 46f 45f
6:50pm 8.5ft 11s 8s 7 9 mph 1014.9mb 46f 45f
5:50pm 8.5ft 11s 8s 4 7 mph 1014.9mb 46f 46f
4:50pm 9ft 10s 8s 9 11 mph 1015mb 46f 45f
3:50pm 8.5ft 11s 8s 11 13 mph 1014.9mb 46f 45f
2:50pm 8ft 11s 7s 7 9 mph 1014.6mb 45f 46f
1:50pm 7.5ft 10s 8s 9 11 mph 1014mb 45f 46f
12:50pm 7ft 10s 8s 11 13 mph 1013.7mb 46f 45f
11:50am 6.5ft 9s 7s  -  2 mph 1013.3mb 46f 46f
10:50am 6.5ft 11s 7s 4 4 mph 1012.4mb 45f 45f
9:50am 6.5ft 9s 7s 4 7 mph 1011.7mb 45f 45f
8:50am 6ft 9s 6s 4 7 mph 1011.1mb 45f 45f
7:50am 7ft 9s 7s 7 7 mph 1010.3mb 45f 45f
6:50am 7ft 9s 7s 9 11 mph 1009.7mb 45f 45f
5:50am 6.5ft 9s 6s 9 11 mph 1008.8mb 45f 45f
4:50am 6ft 8s 6s 13 16 mph 1008.1mb 45f 45f
3:50am 6ft 9s 6s 16 18 mph 1007.3mb 44f 45f
2:50am 6ft 9s 6s 18 22 mph 1006.2mb 44f 46f
1:50am 6.5ft 10s 6s 18 22 mph 1005.2mb 44f 45f
12:50am 6.5ft 9s 6s 20 25 mph 1004mb 44f 45f
Sun 05/21 11:50pm 6ft 9s 6s 16 20 mph 1003.5mb 44f 46f
10:50pm 7ft 9s 7s 18 22 mph 1002.1mb 44f 45f
9:50pm 7ft 9s 7s 18 22 mph 1000.8mb 45f 44f
8:50pm 7ft 8s 7s 16 20 mph 999.9mb 45f 45f
7:50pm 6ft 8s 6s 18 22 mph 998.9mb 45f 44f
6:50pm 6.5ft 8s 7s 16 18 mph 998.6mb 45f 44f
5:50pm 7ft 8s 7s 9 11 mph 998.3mb 45f 44f
4:50pm 7ft 9s 7s 7 9 mph 998.2mb 45f 44f
3:50pm 6.5ft 9s 7s  -  2 mph 998.1mb 45f 45f
2:50pm 6ft 10s 7s 2 4 mph 998mb 45f 44f
1:50pm 5.5ft 9s 7s 7 9 mph 997.9mb 45f 44f
12:50pm 5ft 9s 7s 7 9 mph 997.9mb 44f 44f
11:50am 5ft 9s 6s 11 13 mph 997.7mb 44f 44f
10:50am 5ft 9s 6s 11 13 mph 997.7mb 44f 44f
9:50am 5ft 9s 6s 11 13 mph 997.7mb 45f 44f
8:50am 5ft 8s 5s 11 16 mph 998mb 45f 45f
7:50am 6ft 8s 5s 18 22 mph 998.2mb 45f 45f
6:50am 6ft 8s 5s 18 20 mph 998.7mb 45f 45f
5:50am 6ft 8s  -  22 29 mph 999.3mb 45f 45f
4:50am 4.5ft 7s 5s 22 27 mph 999.9mb 45f 44f
3:50am 4ft 7s 5s 18 22 mph 1001.1mb 45f 45f
2:50am 3.5ft 6s 5s 11 16 mph 1002mb 45f 45f
1:50am 3.5ft 8s 5s 13 16 mph 1002.5mb 45f 45f
12:50am 3.5ft 5s 5s 16 20 mph 1002.8mb 45f 46f
Sat 05/20 11:50pm 3.5ft 9s 5s 16 18 mph 1003.8mb 45f 45f
10:50pm 3.5ft 5s 5s 16 20 mph 1004.5mb 45f 45f
9:50pm 3.5ft 5s 5s 7 9 mph 1005.9mb 45f 44f
8:50pm 4ft 5s 5s 16 18 mph 1006.2mb 45f 44f
7:50pm 4.5ft 5s  -  20 22 mph 1007.2mb 45f 44f
6:50pm 4ft 7s 5s 16 20 mph 1008mb 45f 45f
5:50pm 4.5ft 5s 5s 16 18 mph 1009.1mb 45f 45f
4:50pm 5ft 6s 5s 18 20 mph 1009.7mb 45f 44f
3:50pm 4.5ft 6s 5s 18 22 mph 1010.4mb 45f 45f
2:50pm 4.5ft 7s 5s 16 18 mph 1011.2mb 45f 45f
1:50pm 4.5ft 6s 5s 13 16 mph 1011.9mb 44f 45f
12:50pm 4.5ft 7s 5s 11 13 mph 1012.3mb 44f 44f
11:50am 4ft 7s 5s 13 18 mph 1012.4mb 44f 44f
10:50am 4.5ft 7s 5s 13 18 mph 1012.6mb 44f 44f
9:50am 4.5ft 8s 5s 16 18 mph 1012.5mb 44f 44f
8:50am 4.5ft 8s 6s 9 11 mph 1012.5mb 44f 43f
7:50am 4.5ft 8s 6s 9 11 mph 1012.5mb 45f 44f
6:50am 4.5ft 7s 5s 9 11 mph 1012.5mb 45f 44f
5:50am 5ft 7s 5s 11 13 mph 1012.4mb 45f 44f
4:50am 5ft 7s 5s 9 11 mph 1012.5mb 44f 44f
3:50am 5ft 8s 5s 13 18 mph 1012.1mb 44f 44f
2:50am 5ft 8s 5s 18 22 mph 1012.1mb 45f 43f
1:50am 5ft 7s 5s 18 22 mph 1012.6mb 44f 43f
12:50am 5ft 6s 5s 18 22 mph 1013mb 44f 43f
Fri 05/19 11:50pm 4.5ft 5s 5s 20 27 mph 1013.2mb 44f 43f
10:50pm 4.5ft 4s 5s 22 27 mph 1013.4mb 44f 43f
9:50pm 4ft 5s 5s 18 22 mph 1013.6mb 45f 43f
8:50pm 3.5ft 8s 5s 18 22 mph 1013.8mb 45f 43f
7:50pm 3.5ft 8s 5s 16 18 mph 1014.2mb 45f 43f